sensor_id;sensor_type;location;lat;lon;timestamp;P1;durP1;ratioP1;P2;durP2;ratioP2
12288;SDS011;6207;49.308;7.336;2023-04-05T00:02:08;10.33;;;9.93;;
12288;SDS011;6207;49.308;7.336;2023-04-05T00:04:36;11.00;;;10.50;;
12288;SDS011;6207;49.308;7.336;2023-04-05T00:07:04;10.50;;;10.10;;
12288;SDS011;6207;49.308;7.336;2023-04-05T00:09:33;10.00;;;9.60;;
12288;SDS011;6207;49.308;7.336;2023-04-05T00:12:00;10.30;;;9.90;;
12288;SDS011;6207;49.308;7.336;2023-04-05T00:14:26;10.80;;;10.30;;
12288;SDS011;6207;49.308;7.336;2023-04-05T00:16:53;10.30;;;9.90;;
12288;SDS011;6207;49.308;7.336;2023-04-05T00:19:20;10.30;;;9.90;;
12288;SDS011;6207;49.308;7.336;2023-04-05T00:21:48;10.40;;;10.00;;
12288;SDS011;6207;49.308;7.336;2023-04-05T00:24:15;10.20;;;9.80;;
12288;SDS011;6207;49.308;7.336;2023-04-05T00:26:41;10.10;;;9.70;;
12288;SDS011;6207;49.308;7.336;2023-04-05T00:29:09;10.23;;;9.83;;
12288;SDS011;6207;49.308;7.336;2023-04-05T00:31:36;10.40;;;10.00;;
12288;SDS011;6207;49.308;7.336;2023-04-05T00:34:02;10.30;;;9.90;;
12288;SDS011;6207;49.308;7.336;2023-04-05T00:36:31;10.10;;;9.70;;
12288;SDS011;6207;49.308;7.336;2023-04-05T00:38:57;9.70;;;9.30;;
12288;SDS011;6207;49.308;7.336;2023-04-05T00:41:24;10.03;;;9.63;;
12288;SDS011;6207;49.308;7.336;2023-04-05T00:43:51;9.90;;;9.50;;
12288;SDS011;6207;49.308;7.336;2023-04-05T00:46:17;9.50;;;9.10;;
12288;SDS011;6207;49.308;7.336;2023-04-05T00:48:44;9.50;;;9.10;;
12288;SDS011;6207;49.308;7.336;2023-04-05T00:51:12;9.50;;;9.10;;
12288;SDS011;6207;49.308;7.336;2023-04-05T00:53:39;9.40;;;9.00;;
12288;SDS011;6207;49.308;7.336;2023-04-05T00:56:06;9.50;;;9.10;;
12288;SDS011;6207;49.308;7.336;2023-04-05T00:58:35;9.40;;;9.00;;
12288;SDS011;6207;49.308;7.336;2023-04-05T01:01:16;10.53;;;10.03;;
12288;SDS011;6207;49.308;7.336;2023-04-05T01:03:48;9.97;;;9.57;;
12288;SDS011;6207;49.308;7.336;2023-04-05T01:08:59;9.33;;;8.93;;
12288;SDS011;6207;49.308;7.336;2023-04-05T01:11:34;9.40;;;9.00;;
12288;SDS011;6207;49.308;7.336;2023-04-05T01:14:04;9.70;;;9.30;;
12288;SDS011;6207;49.308;7.336;2023-04-05T01:16:31;9.70;;;9.30;;
12288;SDS011;6207;49.308;7.336;2023-04-05T01:18:57;9.73;;;9.33;;
12288;SDS011;6207;49.308;7.336;2023-04-05T01:21:39;9.43;;;9.03;;
12288;SDS011;6207;49.308;7.336;2023-04-05T01:24:26;8.83;;;8.43;;
12288;SDS011;6207;49.308;7.336;2023-04-05T01:30:34;9.87;;;9.20;;
12288;SDS011;6207;49.308;7.336;2023-04-05T01:38:31;9.50;;;9.10;;
12288;SDS011;6207;49.308;7.336;2023-04-05T01:41:02;9.20;;;8.80;;
12288;SDS011;6207;49.308;7.336;2023-04-05T01:43:29;9.60;;;9.20;;
12288;SDS011;6207;49.308;7.336;2023-04-05T01:45:56;9.00;;;8.60;;
12288;SDS011;6207;49.308;7.336;2023-04-05T01:48:22;9.80;;;9.40;;
12288;SDS011;6207;49.308;7.336;2023-04-05T01:50:49;8.77;;;8.37;;
12288;SDS011;6207;49.308;7.336;2023-04-05T01:53:16;9.20;;;8.80;;
12288;SDS011;6207;49.308;7.336;2023-04-05T01:55:42;9.20;;;8.80;;
12288;SDS011;6207;49.308;7.336;2023-04-05T01:58:09;9.80;;;9.40;;
12288;SDS011;6207;49.308;7.336;2023-04-05T02:00:36;8.90;;;8.50;;
12288;SDS011;6207;49.308;7.336;2023-04-05T02:03:02;9.17;;;8.77;;
12288;SDS011;6207;49.308;7.336;2023-04-05T02:05:29;9.10;;;8.70;;
12288;SDS011;6207;49.308;7.336;2023-04-05T02:07:56;8.83;;;8.43;;
12288;SDS011;6207;49.308;7.336;2023-04-05T02:10:22;9.00;;;8.60;;
12288;SDS011;6207;49.308;7.336;2023-04-05T02:12:49;8.90;;;8.50;;
12288;SDS011;6207;49.308;7.336;2023-04-05T02:15:16;9.00;;;8.60;;
12288;SDS011;6207;49.308;7.336;2023-04-05T02:17:43;8.90;;;8.50;;
12288;SDS011;6207;49.308;7.336;2023-04-05T02:20:11;8.20;;;7.90;;
12288;SDS011;6207;49.308;7.336;2023-04-05T02:22:40;8.70;;;8.30;;
12288;SDS011;6207;49.308;7.336;2023-04-05T02:25:07;8.70;;;8.30;;
12288;SDS011;6207;49.308;7.336;2023-04-05T02:27:34;8.70;;;8.30;;
12288;SDS011;6207;49.308;7.336;2023-04-05T02:30:01;8.47;;;8.17;;
12288;SDS011;6207;49.308;7.336;2023-04-05T02:32:28;8.20;;;7.90;;
12288;SDS011;6207;49.308;7.336;2023-04-05T02:34:54;8.30;;;8.00;;
12288;SDS011;6207;49.308;7.336;2023-04-05T02:37:21;8.80;;;8.40;;
12288;SDS011;6207;49.308;7.336;2023-04-05T02:39:48;8.30;;;8.00;;
12288;SDS011;6207;49.308;7.336;2023-04-05T02:42:14;8.37;;;8.07;;
12288;SDS011;6207;49.308;7.336;2023-04-05T02:44:41;8.50;;;8.20;;
12288;SDS011;6207;49.308;7.336;2023-04-05T02:47:08;8.90;;;8.50;;
12288;SDS011;6207;49.308;7.336;2023-04-05T02:49:34;8.70;;;8.30;;
12288;SDS011;6207;49.308;7.336;2023-04-05T02:52:01;8.57;;;8.23;;
12288;SDS011;6207;49.308;7.336;2023-04-05T02:54:28;8.77;;;8.37;;
12288;SDS011;6207;49.308;7.336;2023-04-05T02:56:54;8.80;;;8.40;;
12288;SDS011;6207;49.308;7.336;2023-04-05T02:59:22;8.60;;;8.20;;
12288;SDS011;6207;49.308;7.336;2023-04-05T03:01:50;8.40;;;8.10;;
12288;SDS011;6207;49.308;7.336;2023-04-05T03:04:16;8.60;;;8.20;;
12288;SDS011;6207;49.308;7.336;2023-04-05T03:06:43;8.70;;;8.30;;
12288;SDS011;6207;49.308;7.336;2023-04-05T03:09:13;8.90;;;8.50;;
12288;SDS011;6207;49.308;7.336;2023-04-05T03:11:40;8.60;;;8.20;;
12288;SDS011;6207;49.308;7.336;2023-04-05T03:14:07;9.17;;;8.67;;
12288;SDS011;6207;49.308;7.336;2023-04-05T03:16:33;8.80;;;8.40;;
12288;SDS011;6207;49.308;7.336;2023-04-05T03:19:01;8.90;;;8.50;;
12288;SDS011;6207;49.308;7.336;2023-04-05T03:21:30;8.67;;;8.27;;
12288;SDS011;6207;49.308;7.336;2023-04-05T03:23:58;8.57;;;8.23;;
12288;SDS011;6207;49.308;7.336;2023-04-05T03:26:26;8.30;;;8.00;;
12288;SDS011;6207;49.308;7.336;2023-04-05T03:28:53;8.87;;;8.47;;
12288;SDS011;6207;49.308;7.336;2023-04-05T03:31:19;7.90;;;7.60;;
12288;SDS011;6207;49.308;7.336;2023-04-05T03:33:46;8.00;;;7.70;;
12288;SDS011;6207;49.308;7.336;2023-04-05T03:36:13;8.10;;;7.80;;
12288;SDS011;6207;49.308;7.336;2023-04-05T03:38:42;7.97;;;7.67;;
12288;SDS011;6207;49.308;7.336;2023-04-05T03:41:10;9.37;;;8.97;;
12288;SDS011;6207;49.308;7.336;2023-04-05T03:43:37;7.67;;;7.37;;
12288;SDS011;6207;49.308;7.336;2023-04-05T03:46:04;8.10;;;7.80;;
12288;SDS011;6207;49.308;7.336;2023-04-05T03:48:31;8.63;;;8.23;;
12288;SDS011;6207;49.308;7.336;2023-04-05T03:50:57;7.90;;;7.60;;
12288;SDS011;6207;49.308;7.336;2023-04-05T03:53:24;8.10;;;7.80;;
12288;SDS011;6207;49.308;7.336;2023-04-05T03:55:51;8.37;;;8.07;;
12288;SDS011;6207;49.308;7.336;2023-04-05T03:58:19;9.03;;;8.63;;
12288;SDS011;6207;49.308;7.336;2023-04-05T04:00:46;8.43;;;8.13;;
12288;SDS011;6207;49.308;7.336;2023-04-05T04:03:13;8.40;;;8.10;;
12288;SDS011;6207;49.308;7.336;2023-04-05T04:05:40;8.43;;;8.13;;
12288;SDS011;6207;49.308;7.336;2023-04-05T04:08:07;8.17;;;7.87;;
12288;SDS011;6207;49.308;7.336;2023-04-05T04:10:35;8.03;;;7.73;;
12288;SDS011;6207;49.308;7.336;2023-04-05T04:13:01;8.40;;;8.10;;
12288;SDS011;6207;49.308;7.336;2023-04-05T04:15:28;8.20;;;7.90;;
12288;SDS011;6207;49.308;7.336;2023-04-05T04:17:55;8.03;;;7.73;;
12288;SDS011;6207;49.308;7.336;2023-04-05T04:20:22;8.30;;;8.00;;
12288;SDS011;6207;49.308;7.336;2023-04-05T04:22:48;7.70;;;7.40;;
12288;SDS011;6207;49.308;7.336;2023-04-05T04:25:15;7.80;;;7.50;;
12288;SDS011;6207;49.308;7.336;2023-04-05T04:27:44;7.63;;;7.33;;
12288;SDS011;6207;49.308;7.336;2023-04-05T04:30:12;8.37;;;8.07;;
12288;SDS011;6207;49.308;7.336;2023-04-05T04:32:41;7.70;;;7.40;;
12288;SDS011;6207;49.308;7.336;2023-04-05T04:35:18;7.90;;;7.60;;
12288;SDS011;6207;49.308;7.336;2023-04-05T04:40:30;7.60;;;7.30;;
12288;SDS011;6207;49.308;7.336;2023-04-05T04:43:15;7.70;;;7.40;;
12288;SDS011;6207;49.308;7.336;2023-04-05T04:45:51;7.70;;;7.40;;
12288;SDS011;6207;49.308;7.336;2023-04-05T04:48:20;7.47;;;7.17;;
12288;SDS011;6207;49.308;7.336;2023-04-05T04:50:47;7.53;;;7.23;;
12288;SDS011;6207;49.308;7.336;2023-04-05T04:53:15;7.20;;;6.90;;
12288;SDS011;6207;49.308;7.336;2023-04-05T04:55:46;7.67;;;7.37;;
12288;SDS011;6207;49.308;7.336;2023-04-05T04:58:15;7.17;;;6.87;;
12288;SDS011;6207;49.308;7.336;2023-04-05T05:00:43;7.27;;;6.97;;
12288;SDS011;6207;49.308;7.336;2023-04-05T05:03:10;7.13;;;6.83;;
12288;SDS011;6207;49.308;7.336;2023-04-05T05:05:43;6.90;;;6.60;;
12288;SDS011;6207;49.308;7.336;2023-04-05T05:08:12;7.20;;;6.90;;
12288;SDS011;6207;49.308;7.336;2023-04-05T05:10:39;7.20;;;6.90;;
12288;SDS011;6207;49.308;7.336;2023-04-05T05:13:06;7.00;;;6.70;;
12288;SDS011;6207;49.308;7.336;2023-04-05T05:15:33;7.20;;;6.90;;
12288;SDS011;6207;49.308;7.336;2023-04-05T05:18:00;8.10;;;7.73;;
12288;SDS011;6207;49.308;7.336;2023-04-05T05:20:26;7.27;;;6.97;;
12288;SDS011;6207;49.308;7.336;2023-04-05T05:22:54;7.50;;;7.20;;
12288;SDS011;6207;49.308;7.336;2023-04-05T05:25:21;7.73;;;7.43;;
12288;SDS011;6207;49.308;7.336;2023-04-05T05:27:48;7.60;;;7.30;;
12288;SDS011;6207;49.308;7.336;2023-04-05T05:30:16;7.50;;;7.20;;
12288;SDS011;6207;49.308;7.336;2023-04-05T05:32:44;8.10;;;7.80;;
12288;SDS011;6207;49.308;7.336;2023-04-05T05:35:10;8.67;;;8.27;;
12288;SDS011;6207;49.308;7.336;2023-04-05T05:37:37;8.60;;;8.20;;
12288;SDS011;6207;49.308;7.336;2023-04-05T05:40:04;8.00;;;7.70;;
12288;SDS011;6207;49.308;7.336;2023-04-05T05:42:31;8.40;;;8.10;;
12288;SDS011;6207;49.308;7.336;2023-04-05T05:45:02;7.90;;;7.60;;
12288;SDS011;6207;49.308;7.336;2023-04-05T05:47:31;8.10;;;7.80;;
12288;SDS011;6207;49.308;7.336;2023-04-05T05:49:57;8.10;;;7.80;;
12288;SDS011;6207;49.308;7.336;2023-04-05T05:52:24;8.50;;;8.10;;
12288;SDS011;6207;49.308;7.336;2023-04-05T05:54:51;8.77;;;8.37;;
12288;SDS011;6207;49.308;7.336;2023-04-05T05:57:18;10.33;;;9.83;;
12288;SDS011;6207;49.308;7.336;2023-04-05T05:59:45;8.60;;;8.20;;
12288;SDS011;6207;49.308;7.336;2023-04-05T06:02:12;8.40;;;8.10;;
12288;SDS011;6207;49.308;7.336;2023-04-05T06:04:39;8.70;;;8.30;;
12288;SDS011;6207;49.308;7.336;2023-04-05T06:07:05;9.00;;;8.60;;
12288;SDS011;6207;49.308;7.336;2023-04-05T06:09:32;8.77;;;8.37;;
12288;SDS011;6207;49.308;7.336;2023-04-05T06:12:00;9.07;;;8.67;;
12288;SDS011;6207;49.308;7.336;2023-04-05T06:14:27;9.40;;;9.00;;
12288;SDS011;6207;49.308;7.336;2023-04-05T06:16:55;9.70;;;9.30;;
12288;SDS011;6207;49.308;7.336;2023-04-05T06:19:21;9.70;;;9.30;;
12288;SDS011;6207;49.308;7.336;2023-04-05T06:21:48;11.90;;;11.37;;
12288;SDS011;6207;49.308;7.336;2023-04-05T06:24:15;11.43;;;10.93;;
12288;SDS011;6207;49.308;7.336;2023-04-05T06:26:42;10.70;;;10.20;;
12288;SDS011;6207;49.308;7.336;2023-04-05T06:29:08;11.40;;;10.90;;
12288;SDS011;6207;49.308;7.336;2023-04-05T06:31:35;11.17;;;10.67;;
12288;SDS011;6207;49.308;7.336;2023-04-05T06:34:02;11.73;;;11.23;;
12288;SDS011;6207;49.308;7.336;2023-04-05T06:36:29;12.93;;;12.33;;
12288;SDS011;6207;49.308;7.336;2023-04-05T06:38:57;11.53;;;11.03;;
12288;SDS011;6207;49.308;7.336;2023-04-05T06:41:24;11.67;;;11.17;;
12288;SDS011;6207;49.308;7.336;2023-04-05T06:43:52;12.43;;;11.73;;
12288;SDS011;6207;49.308;7.336;2023-04-05T06:46:19;11.40;;;10.90;;
12288;SDS011;6207;49.308;7.336;2023-04-05T06:48:46;11.77;;;11.27;;
12288;SDS011;6207;49.308;7.336;2023-04-05T06:51:14;12.03;;;11.53;;
12288;SDS011;6207;49.308;7.336;2023-04-05T06:53:41;12.27;;;11.67;;
12288;SDS011;6207;49.308;7.336;2023-04-05T06:56:08;12.70;;;12.03;;
12288;SDS011;6207;49.308;7.336;2023-04-05T06:58:35;11.90;;;11.40;;
12288;SDS011;6207;49.308;7.336;2023-04-05T07:01:01;11.73;;;11.23;;
12288;SDS011;6207;49.308;7.336;2023-04-05T07:03:29;11.63;;;11.13;;
12288;SDS011;6207;49.308;7.336;2023-04-05T07:05:57;12.10;;;11.60;;
12288;SDS011;6207;49.308;7.336;2023-04-05T07:08:24;11.73;;;11.23;;
12288;SDS011;6207;49.308;7.336;2023-04-05T07:10:52;12.20;;;11.60;;
12288;SDS011;6207;49.308;7.336;2023-04-05T07:13:19;13.00;;;12.10;;
12288;SDS011;6207;49.308;7.336;2023-04-05T07:15:47;11.67;;;11.17;;
12288;SDS011;6207;49.308;7.336;2023-04-05T07:18:13;12.30;;;11.70;;
12288;SDS011;6207;49.308;7.336;2023-04-05T07:20:46;13.10;;;12.43;;
12288;SDS011;6207;49.308;7.336;2023-04-05T07:23:17;15.93;;;14.90;;
12288;SDS011;6207;49.308;7.336;2023-04-05T07:25:45;15.50;;;14.33;;
12288;SDS011;6207;49.308;7.336;2023-04-05T07:28:11;15.60;;;14.50;;
12288;SDS011;6207;49.308;7.336;2023-04-05T07:30:38;15.43;;;14.53;;
12288;SDS011;6207;49.308;7.336;2023-04-05T07:33:05;16.03;;;14.93;;
12288;SDS011;6207;49.308;7.336;2023-04-05T07:35:32;16.03;;;14.93;;
12288;SDS011;6207;49.308;7.336;2023-04-05T07:37:58;16.07;;;14.97;;
12288;SDS011;6207;49.308;7.336;2023-04-05T07:40:25;15.80;;;14.60;;
12288;SDS011;6207;49.308;7.336;2023-04-05T07:42:52;16.83;;;15.37;;
12288;SDS011;6207;49.308;7.336;2023-04-05T07:45:19;15.97;;;14.60;;
12288;SDS011;6207;49.308;7.336;2023-04-05T07:47:46;15.50;;;14.40;;
12288;SDS011;6207;49.308;7.336;2023-04-05T07:50:13;15.70;;;14.70;;
12288;SDS011;6207;49.308;7.336;2023-04-05T07:52:40;15.97;;;14.97;;
12288;SDS011;6207;49.308;7.336;2023-04-05T07:55:08;15.50;;;14.50;;
12288;SDS011;6207;49.308;7.336;2023-04-05T07:57:35;16.63;;;15.17;;
12288;SDS011;6207;49.308;7.336;2023-04-05T08:00:03;15.57;;;14.57;;
12288;SDS011;6207;49.308;7.336;2023-04-05T08:02:32;15.50;;;14.60;;
12288;SDS011;6207;49.308;7.336;2023-04-05T08:04:59;15.47;;;14.43;;
12288;SDS011;6207;49.308;7.336;2023-04-05T08:07:26;16.67;;;15.53;;
12288;SDS011;6207;49.308;7.336;2023-04-05T08:09:52;15.70;;;14.37;;
12288;SDS011;6207;49.308;7.336;2023-04-05T08:12:22;15.97;;;14.87;;
12288;SDS011;6207;49.308;7.336;2023-04-05T08:14:49;15.90;;;14.73;;
12288;SDS011;6207;49.308;7.336;2023-04-05T08:17:16;15.77;;;14.67;;
12288;SDS011;6207;49.308;7.336;2023-04-05T08:19:43;15.97;;;14.97;;
12288;SDS011;6207;49.308;7.336;2023-04-05T08:22:09;15.97;;;14.97;;
12288;SDS011;6207;49.308;7.336;2023-04-05T08:24:36;16.07;;;14.93;;
12288;SDS011;6207;49.308;7.336;2023-04-05T08:27:03;16.80;;;15.70;;
12288;SDS011;6207;49.308;7.336;2023-04-05T08:29:29;15.47;;;14.53;;
12288;SDS011;6207;49.308;7.336;2023-04-05T08:31:56;14.40;;;13.67;;
12288;SDS011;6207;49.308;7.336;2023-04-05T08:34:23;16.30;;;15.20;;
12288;SDS011;6207;49.308;7.336;2023-04-05T08:36:50;14.93;;;14.03;;
12288;SDS011;6207;49.308;7.336;2023-04-05T08:39:17;16.27;;;15.07;;
12288;SDS011;6207;49.308;7.336;2023-04-05T08:41:49;15.20;;;14.10;;
12288;SDS011;6207;49.308;7.336;2023-04-05T08:44:30;15.20;;;14.30;;
12288;SDS011;6207;49.308;7.336;2023-04-05T08:46:57;14.93;;;14.03;;
12288;SDS011;6207;49.308;7.336;2023-04-05T08:49:25;15.33;;;14.43;;
12288;SDS011;6207;49.308;7.336;2023-04-05T08:51:53;14.63;;;13.83;;
12288;SDS011;6207;49.308;7.336;2023-04-05T08:54:20;15.20;;;14.20;;
12288;SDS011;6207;49.308;7.336;2023-04-05T08:56:47;15.60;;;14.67;;
12288;SDS011;6207;49.308;7.336;2023-04-05T08:59:15;14.97;;;14.03;;
12288;SDS011;6207;49.308;7.336;2023-04-05T09:01:44;15.40;;;14.40;;
12288;SDS011;6207;49.308;7.336;2023-04-05T09:04:14;15.37;;;14.37;;
12288;SDS011;6207;49.308;7.336;2023-04-05T09:06:46;15.50;;;14.60;;
12288;SDS011;6207;49.308;7.336;2023-04-05T09:09:14;16.13;;;14.80;;
12288;SDS011;6207;49.308;7.336;2023-04-05T09:11:42;15.57;;;14.57;;
12288;SDS011;6207;49.308;7.336;2023-04-05T09:14:09;15.90;;;14.90;;
12288;SDS011;6207;49.308;7.336;2023-04-05T09:16:37;14.67;;;13.77;;
12288;SDS011;6207;49.308;7.336;2023-04-05T09:19:06;15.40;;;14.50;;
12288;SDS011;6207;49.308;7.336;2023-04-05T09:24:42;16.23;;;15.03;;
12288;SDS011;6207;49.308;7.336;2023-04-05T09:27:13;15.23;;;14.30;;
12288;SDS011;6207;49.308;7.336;2023-04-05T09:29:50;16.67;;;15.13;;
12288;SDS011;6207;49.308;7.336;2023-04-05T09:32:17;15.57;;;14.50;;
12288;SDS011;6207;49.308;7.336;2023-04-05T09:34:46;16.10;;;14.93;;
12288;SDS011;6207;49.308;7.336;2023-04-05T09:37:13;15.20;;;14.20;;
12288;SDS011;6207;49.308;7.336;2023-04-05T09:39:41;15.47;;;14.53;;
12288;SDS011;6207;49.308;7.336;2023-04-05T09:44:55;14.63;;;13.70;;
12288;SDS011;6207;49.308;7.336;2023-04-05T09:47:26;15.33;;;14.10;;
12288;SDS011;6207;49.308;7.336;2023-04-05T09:50:00;14.97;;;14.07;;
12288;SDS011;6207;49.308;7.336;2023-04-05T09:52:31;15.40;;;14.30;;
12288;SDS011;6207;49.308;7.336;2023-04-05T09:55:02;13.97;;;13.17;;
12288;SDS011;6207;49.308;7.336;2023-04-05T09:57:32;14.40;;;13.50;;
12288;SDS011;6207;49.308;7.336;2023-04-05T10:00:01;15.70;;;14.57;;
12288;SDS011;6207;49.308;7.336;2023-04-05T10:02:37;15.57;;;14.37;;
12288;SDS011;6207;49.308;7.336;2023-04-05T10:05:09;14.77;;;13.80;;
12288;SDS011;6207;49.308;7.336;2023-04-05T10:07:39;15.70;;;14.60;;
12288;SDS011;6207;49.308;7.336;2023-04-05T10:10:09;13.57;;;12.73;;
12288;SDS011;6207;49.308;7.336;2023-04-05T10:12:38;14.70;;;13.80;;
12288;SDS011;6207;49.308;7.336;2023-04-05T10:15:07;16.13;;;14.97;;
12288;SDS011;6207;49.308;7.336;2023-04-05T10:17:47;14.90;;;13.97;;
12288;SDS011;6207;49.308;7.336;2023-04-05T10:20:15;14.00;;;13.20;;
12288;SDS011;6207;49.308;7.336;2023-04-05T10:25:39;14.90;;;14.10;;
12288;SDS011;6207;49.308;7.336;2023-04-05T10:34:06;14.40;;;13.60;;
12288;SDS011;6207;49.308;7.336;2023-04-05T10:39:21;14.80;;;13.87;;
12288;SDS011;6207;49.308;7.336;2023-04-05T10:41:53;14.87;;;13.77;;
12288;SDS011;6207;49.308;7.336;2023-04-05T10:44:29;15.30;;;14.10;;
12288;SDS011;6207;49.308;7.336;2023-04-05T10:46:58;15.63;;;14.53;;
12288;SDS011;6207;49.308;7.336;2023-04-05T10:49:38;14.57;;;13.70;;
12288;SDS011;6207;49.308;7.336;2023-04-05T10:52:08;13.83;;;13.03;;
12288;SDS011;6207;49.308;7.336;2023-04-05T10:54:35;14.90;;;13.90;;
12288;SDS011;6207;49.308;7.336;2023-04-05T10:57:06;14.30;;;13.50;;
12288;SDS011;6207;49.308;7.336;2023-04-05T10:59:39;15.00;;;13.93;;
12288;SDS011;6207;49.308;7.336;2023-04-05T11:02:08;14.40;;;13.50;;
12288;SDS011;6207;49.308;7.336;2023-04-05T11:04:36;13.30;;;12.57;;
12288;SDS011;6207;49.308;7.336;2023-04-05T11:07:14;14.60;;;13.60;;
12288;SDS011;6207;49.308;7.336;2023-04-05T11:09:49;14.33;;;13.43;;
12288;SDS011;6207;49.308;7.336;2023-04-05T11:18:01;14.43;;;13.53;;
12288;SDS011;6207;49.308;7.336;2023-04-05T11:21:05;15.37;;;14.30;;
12288;SDS011;6207;49.308;7.336;2023-04-05T11:23:31;15.10;;;14.30;;
12288;SDS011;6207;49.308;7.336;2023-04-05T11:26:18;14.73;;;13.93;;
12288;SDS011;6207;49.308;7.336;2023-04-05T11:28:45;14.47;;;13.67;;
12288;SDS011;6207;49.308;7.336;2023-04-05T11:31:15;14.60;;;13.70;;
12288;SDS011;6207;49.308;7.336;2023-04-05T11:41:55;13.20;;;12.53;;
12288;SDS011;6207;49.308;7.336;2023-04-05T11:44:25;13.40;;;12.70;;
12288;SDS011;6207;49.308;7.336;2023-04-05T11:46:53;13.87;;;13.07;;
12288;SDS011;6207;49.308;7.336;2023-04-05T11:49:21;13.53;;;12.83;;
12288;SDS011;6207;49.308;7.336;2023-04-05T11:51:50;14.50;;;13.67;;
12288;SDS011;6207;49.308;7.336;2023-04-05T11:54:27;14.47;;;13.50;;
12288;SDS011;6207;49.308;7.336;2023-04-05T11:56:58;13.40;;;12.60;;
12288;SDS011;6207;49.308;7.336;2023-04-05T11:59:29;14.13;;;13.13;;
12288;SDS011;6207;49.308;7.336;2023-04-05T12:01:57;15.03;;;14.03;;
12288;SDS011;6207;49.308;7.336;2023-04-05T12:04:27;13.80;;;13.00;;
12288;SDS011;6207;49.308;7.336;2023-04-05T12:07:13;14.23;;;13.43;;
12288;SDS011;6207;49.308;7.336;2023-04-05T12:12:34;14.40;;;13.50;;
12288;SDS011;6207;49.308;7.336;2023-04-05T12:15:09;14.40;;;13.60;;
12288;SDS011;6207;49.308;7.336;2023-04-05T12:17:43;14.30;;;13.20;;
12288;SDS011;6207;49.308;7.336;2023-04-05T12:20:11;14.37;;;13.40;;
12288;SDS011;6207;49.308;7.336;2023-04-05T12:22:40;12.90;;;12.20;;
12288;SDS011;6207;49.308;7.336;2023-04-05T12:25:08;14.40;;;13.10;;
12288;SDS011;6207;49.308;7.336;2023-04-05T12:27:36;13.87;;;13.07;;
12288;SDS011;6207;49.308;7.336;2023-04-05T12:30:07;12.37;;;11.77;;
12288;SDS011;6207;49.308;7.336;2023-04-05T12:32:44;13.47;;;12.73;;
12288;SDS011;6207;49.308;7.336;2023-04-05T12:35:18;14.07;;;13.13;;
12288;SDS011;6207;49.308;7.336;2023-04-05T12:37:48;13.87;;;13.07;;
12288;SDS011;6207;49.308;7.336;2023-04-05T12:40:20;14.03;;;13.23;;
12288;SDS011;6207;49.308;7.336;2023-04-05T12:42:48;13.80;;;12.90;;
12288;SDS011;6207;49.308;7.336;2023-04-05T12:45:15;15.00;;;13.80;;
12288;SDS011;6207;49.308;7.336;2023-04-05T12:47:56;13.67;;;12.97;;
12288;SDS011;6207;49.308;7.336;2023-04-05T12:50:25;14.20;;;13.40;;
12288;SDS011;6207;49.308;7.336;2023-04-05T12:52:57;14.60;;;13.50;;
12288;SDS011;6207;49.308;7.336;2023-04-05T12:55:26;14.13;;;13.33;;
12288;SDS011;6207;49.308;7.336;2023-04-05T12:57:55;14.10;;;13.30;;
12288;SDS011;6207;49.308;7.336;2023-04-05T13:00:25;14.03;;;13.23;;
12288;SDS011;6207;49.308;7.336;2023-04-05T13:02:56;14.30;;;13.43;;
12288;SDS011;6207;49.308;7.336;2023-04-05T13:05:25;14.50;;;13.60;;
12288;SDS011;6207;49.308;7.336;2023-04-05T13:07:53;13.60;;;12.80;;
12288;SDS011;6207;49.308;7.336;2023-04-05T13:10:20;14.17;;;13.33;;
12288;SDS011;6207;49.308;7.336;2023-04-05T13:12:48;14.60;;;13.50;;
12288;SDS011;6207;49.308;7.336;2023-04-05T13:15:15;13.67;;;12.87;;
12288;SDS011;6207;49.308;7.336;2023-04-05T13:17:43;14.00;;;13.20;;
12288;SDS011;6207;49.308;7.336;2023-04-05T13:20:10;14.53;;;13.40;;
12288;SDS011;6207;49.308;7.336;2023-04-05T13:22:37;14.50;;;13.60;;
12288;SDS011;6207;49.308;7.336;2023-04-05T13:25:04;13.97;;;13.00;;
12288;SDS011;6207;49.308;7.336;2023-04-05T13:27:31;14.23;;;13.43;;
12288;SDS011;6207;49.308;7.336;2023-04-05T13:29:58;14.17;;;13.20;;
12288;SDS011;6207;49.308;7.336;2023-04-05T13:32:25;14.03;;;13.10;;
12288;SDS011;6207;49.308;7.336;2023-04-05T13:34:52;13.93;;;13.13;;
12288;SDS011;6207;49.308;7.336;2023-04-05T13:37:19;13.30;;;12.60;;
12288;SDS011;6207;49.308;7.336;2023-04-05T13:39:45;13.57;;;12.87;;
12288;SDS011;6207;49.308;7.336;2023-04-05T13:42:12;13.70;;;12.90;;
12288;SDS011;6207;49.308;7.336;2023-04-05T13:44:39;13.77;;;12.87;;
12288;SDS011;6207;49.308;7.336;2023-04-05T13:47:05;14.00;;;13.20;;
12288;SDS011;6207;49.308;7.336;2023-04-05T13:49:32;14.03;;;13.23;;
12288;SDS011;6207;49.308;7.336;2023-04-05T13:51:59;14.33;;;13.47;;
12288;SDS011;6207;49.308;7.336;2023-04-05T13:54:26;14.37;;;13.37;;
12288;SDS011;6207;49.308;7.336;2023-04-05T13:56:52;13.63;;;12.83;;
12288;SDS011;6207;49.308;7.336;2023-04-05T13:59:19;13.87;;;13.07;;
12288;SDS011;6207;49.308;7.336;2023-04-05T14:01:46;14.30;;;13.40;;
12288;SDS011;6207;49.308;7.336;2023-04-05T14:04:13;13.80;;;13.00;;
12288;SDS011;6207;49.308;7.336;2023-04-05T14:06:40;13.67;;;12.80;;
12288;SDS011;6207;49.308;7.336;2023-04-05T14:09:07;14.00;;;13.10;;
12288;SDS011;6207;49.308;7.336;2023-04-05T14:11:34;13.80;;;13.00;;
12288;SDS011;6207;49.308;7.336;2023-04-05T14:14:01;13.53;;;12.80;;
12288;SDS011;6207;49.308;7.336;2023-04-05T14:16:28;13.47;;;12.50;;
12288;SDS011;6207;49.308;7.336;2023-04-05T14:18:55;13.10;;;12.30;;
12288;SDS011;6207;49.308;7.336;2023-04-05T14:21:25;12.77;;;12.17;;
12288;SDS011;6207;49.308;7.336;2023-04-05T14:23:52;13.50;;;12.80;;
12288;SDS011;6207;49.308;7.336;2023-04-05T14:26:22;12.73;;;12.00;;
12288;SDS011;6207;49.308;7.336;2023-04-05T14:28:51;12.80;;;12.10;;
12288;SDS011;6207;49.308;7.336;2023-04-05T14:31:18;13.53;;;12.73;;
12288;SDS011;6207;49.308;7.336;2023-04-05T14:33:45;13.50;;;12.70;;
12288;SDS011;6207;49.308;7.336;2023-04-05T14:36:11;13.47;;;12.73;;
12288;SDS011;6207;49.308;7.336;2023-04-05T14:38:38;13.50;;;12.70;;
12288;SDS011;6207;49.308;7.336;2023-04-05T14:41:05;13.80;;;12.70;;
12288;SDS011;6207;49.308;7.336;2023-04-05T14:43:31;13.87;;;12.97;;
12288;SDS011;6207;49.308;7.336;2023-04-05T14:45:58;13.80;;;13.10;;
12288;SDS011;6207;49.308;7.336;2023-04-05T14:48:25;14.30;;;13.00;;
12288;SDS011;6207;49.308;7.336;2023-04-05T14:50:53;13.70;;;12.97;;
12288;SDS011;6207;49.308;7.336;2023-04-05T14:53:20;13.60;;;12.70;;
12288;SDS011;6207;49.308;7.336;2023-04-05T14:55:47;13.80;;;12.90;;
12288;SDS011;6207;49.308;7.336;2023-04-05T14:58:13;13.87;;;13.07;;
12288;SDS011;6207;49.308;7.336;2023-04-05T15:00:40;13.67;;;12.87;;
12288;SDS011;6207;49.308;7.336;2023-04-05T15:03:07;12.90;;;12.20;;
12288;SDS011;6207;49.308;7.336;2023-04-05T15:05:34;13.80;;;12.90;;
12288;SDS011;6207;49.308;7.336;2023-04-05T15:08:01;13.17;;;12.47;;
12288;SDS011;6207;49.308;7.336;2023-04-05T15:10:28;14.07;;;13.23;;
12288;SDS011;6207;49.308;7.336;2023-04-05T15:12:55;14.20;;;13.30;;
12288;SDS011;6207;49.308;7.336;2023-04-05T15:15:22;14.80;;;13.43;;
12288;SDS011;6207;49.308;7.336;2023-04-05T15:17:48;14.37;;;13.47;;
12288;SDS011;6207;49.308;7.336;2023-04-05T15:20:15;14.10;;;13.30;;
12288;SDS011;6207;49.308;7.336;2023-04-05T15:22:42;13.93;;;13.03;;
12288;SDS011;6207;49.308;7.336;2023-04-05T15:25:09;13.47;;;12.77;;
12288;SDS011;6207;49.308;7.336;2023-04-05T15:27:36;13.30;;;12.60;;
12288;SDS011;6207;49.308;7.336;2023-04-05T15:30:02;13.90;;;12.97;;
12288;SDS011;6207;49.308;7.336;2023-04-05T15:32:30;13.87;;;13.07;;
12288;SDS011;6207;49.308;7.336;2023-04-05T15:34:59;13.73;;;12.93;;
12288;SDS011;6207;49.308;7.336;2023-04-05T15:37:26;14.43;;;13.43;;
12288;SDS011;6207;49.308;7.336;2023-04-05T15:39:53;14.43;;;13.53;;
12288;SDS011;6207;49.308;7.336;2023-04-05T15:42:20;12.87;;;12.17;;